sensor_id;sensor_type;location;lat;lon;timestamp;P1;durP1;ratioP1;P2;durP2;ratioP2
44842;SDS011;31884;52.538;13.820;2024-03-07T00:01:23;130.65;;;44.13;;
44842;SDS011;31884;52.538;13.820;2024-03-07T00:03:51;128.43;;;44.33;;
44842;SDS011;31884;52.538;13.820;2024-03-07T00:06:17;121.60;;;43.50;;
44842;SDS011;31884;52.538;13.820;2024-03-07T00:08:42;126.00;;;45.13;;
44842;SDS011;31884;52.538;13.820;2024-03-07T00:11:08;122.50;;;45.30;;
44842;SDS011;31884;52.538;13.820;2024-03-07T00:13:34;112.93;;;40.72;;
44842;SDS011;31884;52.538;13.820;2024-03-07T00:16:00;145.90;;;50.72;;
44842;SDS011;31884;52.538;13.820;2024-03-07T00:18:26;121.45;;;43.22;;
44842;SDS011;31884;52.538;13.820;2024-03-07T00:20:52;116.35;;;39.90;;
44842;SDS011;31884;52.538;13.820;2024-03-07T00:23:19;118.93;;;41.25;;
44842;SDS011;31884;52.538;13.820;2024-03-07T00:25:45;122.00;;;38.60;;
44842;SDS011;31884;52.538;13.820;2024-03-07T00:28:13;113.30;;;37.95;;
44842;SDS011;31884;52.538;13.820;2024-03-07T00:30:42;119.22;;;41.80;;
44842;SDS011;31884;52.538;13.820;2024-03-07T00:33:10;108.93;;;39.25;;
44842;SDS011;31884;52.538;13.820;2024-03-07T00:35:36;127.60;;;45.25;;
44842;SDS011;31884;52.538;13.820;2024-03-07T00:38:02;142.38;;;47.70;;
44842;SDS011;31884;52.538;13.820;2024-03-07T00:40:28;124.32;;;42.20;;
44842;SDS011;31884;52.538;13.820;2024-03-07T00:42:54;115.80;;;42.03;;
44842;SDS011;31884;52.538;13.820;2024-03-07T00:45:19;122.15;;;40.92;;
44842;SDS011;31884;52.538;13.820;2024-03-07T00:47:45;115.55;;;37.95;;
44842;SDS011;31884;52.538;13.820;2024-03-07T00:50:10;130.63;;;44.80;;
44842;SDS011;31884;52.538;13.820;2024-03-07T00:52:36;131.60;;;42.35;;
44842;SDS011;31884;52.538;13.820;2024-03-07T00:55:03;176.43;;;53.75;;
44842;SDS011;31884;52.538;13.820;2024-03-07T00:57:29;168.25;;;48.65;;
44842;SDS011;31884;52.538;13.820;2024-03-07T00:59:54;161.48;;;52.28;;
44842;SDS011;31884;52.538;13.820;2024-03-07T01:02:20;168.02;;;52.40;;
44842;SDS011;31884;52.538;13.820;2024-03-07T01:04:45;161.40;;;51.83;;
44842;SDS011;31884;52.538;13.820;2024-03-07T01:07:11;156.88;;;52.05;;
44842;SDS011;31884;52.538;13.820;2024-03-07T01:09:36;168.13;;;48.40;;
44842;SDS011;31884;52.538;13.820;2024-03-07T01:12:02;146.35;;;48.42;;
44842;SDS011;31884;52.538;13.820;2024-03-07T01:14:30;161.60;;;51.17;;
44842;SDS011;31884;52.538;13.820;2024-03-07T01:16:56;140.45;;;47.20;;
44842;SDS011;31884;52.538;13.820;2024-03-07T01:19:21;152.45;;;48.40;;
44842;SDS011;31884;52.538;13.820;2024-03-07T01:21:47;154.88;;;54.45;;
44842;SDS011;31884;52.538;13.820;2024-03-07T01:24:13;131.38;;;46.72;;
44842;SDS011;31884;52.538;13.820;2024-03-07T01:26:42;136.43;;;47.03;;
44842;SDS011;31884;52.538;13.820;2024-03-07T01:29:08;132.00;;;49.53;;
44842;SDS011;31884;52.538;13.820;2024-03-07T01:31:34;123.88;;;44.60;;
44842;SDS011;31884;52.538;13.820;2024-03-07T01:33:59;120.85;;;42.85;;
44842;SDS011;31884;52.538;13.820;2024-03-07T01:36:25;138.60;;;47.13;;
44842;SDS011;31884;52.538;13.820;2024-03-07T01:38:50;146.27;;;48.42;;
44842;SDS011;31884;52.538;13.820;2024-03-07T01:41:16;188.35;;;54.13;;
44842;SDS011;31884;52.538;13.820;2024-03-07T01:43:42;145.65;;;49.92;;
44842;SDS011;31884;52.538;13.820;2024-03-07T01:46:08;135.77;;;46.38;;
44842;SDS011;31884;52.538;13.820;2024-03-07T01:48:35;133.45;;;46.53;;
44842;SDS011;31884;52.538;13.820;2024-03-07T01:51:01;113.68;;;42.55;;
44842;SDS011;31884;52.538;13.820;2024-03-07T01:53:30;130.55;;;45.00;;
44842;SDS011;31884;52.538;13.820;2024-03-07T01:55:57;105.63;;;39.70;;
44842;SDS011;31884;52.538;13.820;2024-03-07T01:58:23;136.90;;;45.33;;
44842;SDS011;31884;52.538;13.820;2024-03-07T02:00:49;104.53;;;39.50;;
44842;SDS011;31884;52.538;13.820;2024-03-07T02:03:15;129.38;;;43.95;;
44842;SDS011;31884;52.538;13.820;2024-03-07T02:05:42;112.55;;;42.42;;
44842;SDS011;31884;52.538;13.820;2024-03-07T02:08:07;98.38;;;40.25;;
44842;SDS011;31884;52.538;13.820;2024-03-07T02:10:33;96.85;;;38.03;;
44842;SDS011;31884;52.538;13.820;2024-03-07T02:12:59;102.68;;;38.47;;
44842;SDS011;31884;52.538;13.820;2024-03-07T02:15:25;90.28;;;39.47;;
44842;SDS011;31884;52.538;13.820;2024-03-07T02:17:52;100.93;;;42.97;;
44842;SDS011;31884;52.538;13.820;2024-03-07T02:20:17;96.60;;;38.25;;
44842;SDS011;31884;52.538;13.820;2024-03-07T02:22:42;79.32;;;33.83;;
44842;SDS011;31884;52.538;13.820;2024-03-07T02:25:08;88.55;;;37.42;;
44842;SDS011;31884;52.538;13.820;2024-03-07T02:27:37;106.68;;;41.03;;
44842;SDS011;31884;52.538;13.820;2024-03-07T02:30:03;92.65;;;39.65;;
44842;SDS011;31884;52.538;13.820;2024-03-07T02:32:30;88.15;;;37.55;;
44842;SDS011;31884;52.538;13.820;2024-03-07T02:34:56;91.25;;;39.33;;
44842;SDS011;31884;52.538;13.820;2024-03-07T02:37:21;87.05;;;35.53;;
44842;SDS011;31884;52.538;13.820;2024-03-07T02:39:47;81.10;;;34.35;;
44842;SDS011;31884;52.538;13.820;2024-03-07T02:42:12;95.50;;;37.03;;
44842;SDS011;31884;52.538;13.820;2024-03-07T02:44:38;87.35;;;37.72;;
44842;SDS011;31884;52.538;13.820;2024-03-07T02:47:04;78.22;;;32.55;;
44842;SDS011;31884;52.538;13.820;2024-03-07T02:49:30;85.45;;;33.63;;
44842;SDS011;31884;52.538;13.820;2024-03-07T02:51:55;83.85;;;34.53;;
44842;SDS011;31884;52.538;13.820;2024-03-07T02:54:21;83.28;;;35.95;;
44842;SDS011;31884;52.538;13.820;2024-03-07T02:56:46;81.18;;;35.10;;
44842;SDS011;31884;52.538;13.820;2024-03-07T02:59:12;80.10;;;33.90;;
44842;SDS011;31884;52.538;13.820;2024-03-07T03:01:38;77.38;;;33.28;;
44842;SDS011;31884;52.538;13.820;2024-03-07T03:04:04;83.10;;;34.00;;
44842;SDS011;31884;52.538;13.820;2024-03-07T03:06:29;91.10;;;37.63;;
44842;SDS011;31884;52.538;13.820;2024-03-07T03:08:54;80.03;;;34.47;;
44842;SDS011;31884;52.538;13.820;2024-03-07T03:11:20;76.97;;;32.10;;
44842;SDS011;31884;52.538;13.820;2024-03-07T03:13:46;72.78;;;32.35;;
44842;SDS011;31884;52.538;13.820;2024-03-07T03:16:13;82.47;;;33.92;;
44842;SDS011;31884;52.538;13.820;2024-03-07T03:18:38;78.70;;;32.80;;
44842;SDS011;31884;52.538;13.820;2024-03-07T03:21:04;86.93;;;36.78;;
44842;SDS011;31884;52.538;13.820;2024-03-07T03:23:29;97.38;;;42.03;;
44842;SDS011;31884;52.538;13.820;2024-03-07T03:25:55;90.03;;;38.50;;
44842;SDS011;31884;52.538;13.820;2024-03-07T03:28:21;87.57;;;37.40;;
44842;SDS011;31884;52.538;13.820;2024-03-07T03:30:47;90.43;;;36.58;;
44842;SDS011;31884;52.538;13.820;2024-03-07T03:33:14;76.20;;;33.42;;
44842;SDS011;31884;52.538;13.820;2024-03-07T03:35:40;78.35;;;35.33;;
44842;SDS011;31884;52.538;13.820;2024-03-07T03:38:05;81.68;;;33.78;;
44842;SDS011;31884;52.538;13.820;2024-03-07T03:40:32;79.50;;;32.30;;
44842;SDS011;31884;52.538;13.820;2024-03-07T03:42:58;64.95;;;30.70;;
44842;SDS011;31884;52.538;13.820;2024-03-07T03:45:23;81.00;;;36.42;;
44842;SDS011;31884;52.538;13.820;2024-03-07T03:47:50;90.85;;;34.13;;
44842;SDS011;31884;52.538;13.820;2024-03-07T03:50:16;69.38;;;31.65;;
44842;SDS011;31884;52.538;13.820;2024-03-07T03:52:45;85.18;;;40.33;;
44842;SDS011;31884;52.538;13.820;2024-03-07T03:55:11;76.28;;;32.30;;
44842;SDS011;31884;52.538;13.820;2024-03-07T03:57:38;76.95;;;32.75;;
44842;SDS011;31884;52.538;13.820;2024-03-07T04:00:05;69.35;;;30.65;;
44842;SDS011;31884;52.538;13.820;2024-03-07T04:02:40;69.28;;;30.67;;
44842;SDS011;31884;52.538;13.820;2024-03-07T04:05:07;69.07;;;29.75;;
44842;SDS011;31884;52.538;13.820;2024-03-07T04:07:35;73.97;;;30.05;;
44842;SDS011;31884;52.538;13.820;2024-03-07T04:10:02;75.10;;;31.42;;
44842;SDS011;31884;52.538;13.820;2024-03-07T04:12:28;88.32;;;37.90;;
44842;SDS011;31884;52.538;13.820;2024-03-07T04:14:54;74.60;;;29.98;;
44842;SDS011;31884;52.538;13.820;2024-03-07T04:17:22;68.97;;;29.30;;
44842;SDS011;31884;52.538;13.820;2024-03-07T04:19:48;75.03;;;33.88;;
44842;SDS011;31884;52.538;13.820;2024-03-07T04:22:13;70.43;;;30.83;;
44842;SDS011;31884;52.538;13.820;2024-03-07T04:24:39;78.32;;;31.33;;
44842;SDS011;31884;52.538;13.820;2024-03-07T04:27:05;71.50;;;30.35;;
44842;SDS011;31884;52.538;13.820;2024-03-07T04:29:31;63.05;;;28.00;;
44842;SDS011;31884;52.538;13.820;2024-03-07T04:31:58;60.67;;;27.80;;
44842;SDS011;31884;52.538;13.820;2024-03-07T04:34:24;62.17;;;27.67;;
44842;SDS011;31884;52.538;13.820;2024-03-07T04:36:50;68.90;;;30.17;;
44842;SDS011;31884;52.538;13.820;2024-03-07T04:39:16;67.75;;;29.65;;
44842;SDS011;31884;52.538;13.820;2024-03-07T04:41:52;70.20;;;30.45;;
44842;SDS011;31884;52.538;13.820;2024-03-07T04:44:18;67.88;;;30.42;;
44842;SDS011;31884;52.538;13.820;2024-03-07T04:46:47;60.25;;;28.10;;
44842;SDS011;31884;52.538;13.820;2024-03-07T04:49:14;68.57;;;30.95;;
44842;SDS011;31884;52.538;13.820;2024-03-07T04:51:40;64.15;;;29.92;;
44842;SDS011;31884;52.538;13.820;2024-03-07T04:54:05;69.80;;;31.80;;
44842;SDS011;31884;52.538;13.820;2024-03-07T04:56:31;70.30;;;31.73;;
44842;SDS011;31884;52.538;13.820;2024-03-07T04:58:57;74.18;;;32.35;;
44842;SDS011;31884;52.538;13.820;2024-03-07T05:01:22;69.18;;;29.27;;
44842;SDS011;31884;52.538;13.820;2024-03-07T05:03:48;65.85;;;30.80;;
44842;SDS011;31884;52.538;13.820;2024-03-07T05:06:13;69.88;;;30.23;;
44842;SDS011;31884;52.538;13.820;2024-03-07T05:08:41;69.55;;;32.25;;
44842;SDS011;31884;52.538;13.820;2024-03-07T05:11:07;60.65;;;28.60;;
44842;SDS011;31884;52.538;13.820;2024-03-07T05:13:32;61.85;;;29.38;;
44842;SDS011;31884;52.538;13.820;2024-03-07T05:15:58;53.63;;;24.95;;
44842;SDS011;31884;52.538;13.820;2024-03-07T05:18:23;50.22;;;25.08;;
44842;SDS011;31884;52.538;13.820;2024-03-07T05:20:49;49.78;;;22.67;;
44842;SDS011;31884;52.538;13.820;2024-03-07T05:23:14;50.10;;;22.50;;
44842;SDS011;31884;52.538;13.820;2024-03-07T05:25:40;48.83;;;21.73;;
44842;SDS011;31884;52.538;13.820;2024-03-07T05:28:05;58.17;;;24.17;;
44842;SDS011;31884;52.538;13.820;2024-03-07T05:30:31;51.92;;;23.58;;
44842;SDS011;31884;52.538;13.820;2024-03-07T05:32:58;45.70;;;22.05;;
44842;SDS011;31884;52.538;13.820;2024-03-07T05:35:25;49.45;;;22.88;;
44842;SDS011;31884;52.538;13.820;2024-03-07T05:37:54;54.03;;;22.63;;
44842;SDS011;31884;52.538;13.820;2024-03-07T05:40:21;56.08;;;24.95;;
44842;SDS011;31884;52.538;13.820;2024-03-07T05:42:47;59.30;;;26.55;;
44842;SDS011;31884;52.538;13.820;2024-03-07T05:45:12;52.53;;;25.13;;
44842;SDS011;31884;52.538;13.820;2024-03-07T05:47:39;52.42;;;23.17;;
44842;SDS011;31884;52.538;13.820;2024-03-07T05:50:05;48.30;;;23.23;;
44842;SDS011;31884;52.538;13.820;2024-03-07T05:52:32;62.75;;;28.80;;
44842;SDS011;31884;52.538;13.820;2024-03-07T05:54:58;49.92;;;25.17;;
44842;SDS011;31884;52.538;13.820;2024-03-07T05:57:23;48.22;;;23.58;;
44842;SDS011;31884;52.538;13.820;2024-03-07T05:59:49;54.90;;;24.50;;
44842;SDS011;31884;52.538;13.820;2024-03-07T06:02:14;56.67;;;24.08;;
44842;SDS011;31884;52.538;13.820;2024-03-07T06:04:40;46.90;;;21.58;;
44842;SDS011;31884;52.538;13.820;2024-03-07T06:07:08;51.83;;;24.80;;
44842;SDS011;31884;52.538;13.820;2024-03-07T06:09:35;41.92;;;21.52;;
44842;SDS011;31884;52.538;13.820;2024-03-07T06:12:01;44.10;;;21.45;;
44842;SDS011;31884;52.538;13.820;2024-03-07T06:14:29;41.75;;;20.00;;
44842;SDS011;31884;52.538;13.820;2024-03-07T06:16:55;41.42;;;20.35;;
44842;SDS011;31884;52.538;13.820;2024-03-07T06:19:23;42.78;;;20.38;;
44842;SDS011;31884;52.538;13.820;2024-03-07T06:21:48;44.53;;;20.65;;
44842;SDS011;31884;52.538;13.820;2024-03-07T06:24:14;52.25;;;24.58;;
44842;SDS011;31884;52.538;13.820;2024-03-07T06:26:40;48.35;;;22.40;;
44842;SDS011;31884;52.538;13.820;2024-03-07T06:29:08;44.40;;;21.33;;
44842;SDS011;31884;52.538;13.820;2024-03-07T06:31:36;49.90;;;23.08;;
44842;SDS011;31884;52.538;13.820;2024-03-07T06:34:02;39.72;;;21.33;;
44842;SDS011;31884;52.538;13.820;2024-03-07T06:36:27;45.95;;;23.00;;
44842;SDS011;31884;52.538;13.820;2024-03-07T06:38:53;46.80;;;23.33;;
44842;SDS011;31884;52.538;13.820;2024-03-07T06:41:19;40.28;;;21.38;;
44842;SDS011;31884;52.538;13.820;2024-03-07T06:43:44;41.33;;;20.73;;
44842;SDS011;31884;52.538;13.820;2024-03-07T06:46:10;37.60;;;20.48;;
44842;SDS011;31884;52.538;13.820;2024-03-07T06:48:37;41.85;;;19.90;;
44842;SDS011;31884;52.538;13.820;2024-03-07T06:51:05;42.85;;;20.23;;
44842;SDS011;31884;52.538;13.820;2024-03-07T06:53:31;37.33;;;19.77;;
44842;SDS011;31884;52.538;13.820;2024-03-07T06:55:56;36.67;;;20.17;;
44842;SDS011;31884;52.538;13.820;2024-03-07T06:58:22;33.75;;;18.08;;
44842;SDS011;31884;52.538;13.820;2024-03-07T07:00:48;34.85;;;18.63;;
44842;SDS011;31884;52.538;13.820;2024-03-07T07:03:16;33.30;;;18.05;;
44842;SDS011;31884;52.538;13.820;2024-03-07T07:05:44;33.85;;;18.42;;
44842;SDS011;31884;52.538;13.820;2024-03-07T07:08:10;29.27;;;17.13;;
44842;SDS011;31884;52.538;13.820;2024-03-07T07:10:36;30.33;;;17.50;;
44842;SDS011;31884;52.538;13.820;2024-03-07T07:13:01;28.35;;;16.80;;
44842;SDS011;31884;52.538;13.820;2024-03-07T07:15:29;29.30;;;16.77;;
44842;SDS011;31884;52.538;13.820;2024-03-07T07:17:55;29.77;;;16.25;;
44842;SDS011;31884;52.538;13.820;2024-03-07T07:20:20;27.50;;;14.93;;
44842;SDS011;31884;52.538;13.820;2024-03-07T07:22:48;32.53;;;17.10;;
44842;SDS011;31884;52.538;13.820;2024-03-07T07:25:14;28.92;;;16.58;;
44842;SDS011;31884;52.538;13.820;2024-03-07T07:27:47;24.45;;;16.38;;
44842;SDS011;31884;52.538;13.820;2024-03-07T07:30:15;30.17;;;16.00;;
44842;SDS011;31884;52.538;13.820;2024-03-07T07:32:42;24.05;;;14.70;;
44842;SDS011;31884;52.538;13.820;2024-03-07T07:35:09;28.90;;;16.98;;
44842;SDS011;31884;52.538;13.820;2024-03-07T07:37:41;31.42;;;16.80;;
44842;SDS011;31884;52.538;13.820;2024-03-07T07:40:08;28.52;;;16.13;;
44842;SDS011;31884;52.538;13.820;2024-03-07T07:42:39;29.10;;;14.80;;
44842;SDS011;31884;52.538;13.820;2024-03-07T07:45:07;28.70;;;15.43;;
44842;SDS011;31884;52.538;13.820;2024-03-07T07:47:59;32.75;;;16.58;;
44842;SDS011;31884;52.538;13.820;2024-03-07T07:50:23;24.77;;;15.48;;
44842;SDS011;31884;52.538;13.820;2024-03-07T07:52:50;29.70;;;16.33;;
44842;SDS011;31884;52.538;13.820;2024-03-07T07:55:18;33.13;;;17.45;;
44842;SDS011;31884;52.538;13.820;2024-03-07T07:57:45;26.30;;;16.52;;
44842;SDS011;31884;52.538;13.820;2024-03-07T08:00:12;27.45;;;15.93;;
44842;SDS011;31884;52.538;13.820;2024-03-07T08:02:46;29.88;;;17.92;;
44842;SDS011;31884;52.538;13.820;2024-03-07T08:05:13;32.58;;;17.48;;
44842;SDS011;31884;52.538;13.820;2024-03-07T08:07:42;23.90;;;14.90;;
44842;SDS011;31884;52.538;13.820;2024-03-07T08:10:08;27.00;;;15.93;;
44842;SDS011;31884;52.538;13.820;2024-03-07T08:12:34;22.05;;;14.48;;
44842;SDS011;31884;52.538;13.820;2024-03-07T08:15:02;27.80;;;15.90;;
44842;SDS011;31884;52.538;13.820;2024-03-07T08:17:28;28.25;;;15.35;;
44842;SDS011;31884;52.538;13.820;2024-03-07T08:19:54;29.00;;;16.02;;
44842;SDS011;31884;52.538;13.820;2024-03-07T08:22:20;23.63;;;14.23;;
44842;SDS011;31884;52.538;13.820;2024-03-07T08:24:45;25.95;;;14.35;;
44842;SDS011;31884;52.538;13.820;2024-03-07T08:27:11;23.08;;;14.10;;
44842;SDS011;31884;52.538;13.820;2024-03-07T08:29:36;21.83;;;13.25;;
44842;SDS011;31884;52.538;13.820;2024-03-07T08:32:02;25.98;;;16.10;;
44842;SDS011;31884;52.538;13.820;2024-03-07T08:34:28;25.00;;;14.30;;
44842;SDS011;31884;52.538;13.820;2024-03-07T08:36:53;25.52;;;14.98;;
44842;SDS011;31884;52.538;13.820;2024-03-07T08:39:18;25.77;;;14.38;;
44842;SDS011;31884;52.538;13.820;2024-03-07T08:41:44;22.50;;;13.90;;
44842;SDS011;31884;52.538;13.820;2024-03-07T08:44:11;27.08;;;14.60;;
44842;SDS011;31884;52.538;13.820;2024-03-07T08:46:38;26.55;;;15.30;;
44842;SDS011;31884;52.538;13.820;2024-03-07T08:49:04;19.83;;;11.93;;
44842;SDS011;31884;52.538;13.820;2024-03-07T08:51:30;23.58;;;12.68;;
44842;SDS011;31884;52.538;13.820;2024-03-07T08:53:56;22.05;;;12.70;;
44842;SDS011;31884;52.538;13.820;2024-03-07T08:56:21;22.77;;;14.20;;
44842;SDS011;31884;52.538;13.820;2024-03-07T08:58:47;23.02;;;15.18;;
44842;SDS011;31884;52.538;13.820;2024-03-07T09:01:13;20.15;;;13.40;;
44842;SDS011;31884;52.538;13.820;2024-03-07T09:03:38;23.77;;;13.02;;
44842;SDS011;31884;52.538;13.820;2024-03-07T09:06:04;20.10;;;13.13;;
44842;SDS011;31884;52.538;13.820;2024-03-07T09:08:30;21.35;;;13.00;;
44842;SDS011;31884;52.538;13.820;2024-03-07T09:10:56;22.42;;;13.48;;
44842;SDS011;31884;52.538;13.820;2024-03-07T09:13:22;21.05;;;13.57;;
44842;SDS011;31884;52.538;13.820;2024-03-07T09:15:48;21.98;;;13.90;;
44842;SDS011;31884;52.538;13.820;2024-03-07T09:18:13;16.90;;;12.07;;
44842;SDS011;31884;52.538;13.820;2024-03-07T09:20:39;20.67;;;14.95;;
44842;SDS011;31884;52.538;13.820;2024-03-07T09:23:05;23.05;;;14.95;;
44842;SDS011;31884;52.538;13.820;2024-03-07T09:25:31;23.88;;;14.70;;
44842;SDS011;31884;52.538;13.820;2024-03-07T09:27:59;25.00;;;14.82;;
44842;SDS011;31884;52.538;13.820;2024-03-07T09:30:25;25.55;;;15.30;;
44842;SDS011;31884;52.538;13.820;2024-03-07T09:32:52;25.08;;;16.30;;
44842;SDS011;31884;52.538;13.820;2024-03-07T09:35:20;29.75;;;17.52;;
44842;SDS011;31884;52.538;13.820;2024-03-07T09:37:45;29.30;;;18.50;;
44842;SDS011;31884;52.538;13.820;2024-03-07T09:40:11;27.70;;;17.45;;
44842;SDS011;31884;52.538;13.820;2024-03-07T09:42:46;26.58;;;16.55;;
44842;SDS011;31884;52.538;13.820;2024-03-07T09:45:13;22.38;;;14.63;;
44842;SDS011;31884;52.538;13.820;2024-03-07T09:47:41;32.58;;;18.05;;
44842;SDS011;31884;52.538;13.820;2024-03-07T09:50:09;29.73;;;18.55;;
44842;SDS011;31884;52.538;13.820;2024-03-07T09:52:34;26.20;;;16.45;;
44842;SDS011;31884;52.538;13.820;2024-03-07T09:55:01;23.13;;;15.65;;
44842;SDS011;31884;52.538;13.820;2024-03-07T09:57:27;23.50;;;14.27;;
44842;SDS011;31884;52.538;13.820;2024-03-07T09:59:57;24.67;;;14.57;;
44842;SDS011;31884;52.538;13.820;2024-03-07T10:02:24;21.50;;;13.50;;
44842;SDS011;31884;52.538;13.820;2024-03-07T10:04:51;23.27;;;14.73;;
44842;SDS011;31884;52.538;13.820;2024-03-07T10:07:19;24.83;;;15.10;;
44842;SDS011;31884;52.538;13.820;2024-03-07T10:09:45;26.95;;;15.48;;
44842;SDS011;31884;52.538;13.820;2024-03-07T10:12:12;29.58;;;16.65;;
44842;SDS011;31884;52.538;13.820;2024-03-07T10:14:50;24.30;;;15.93;;
44842;SDS011;31884;52.538;13.820;2024-03-07T10:17:16;24.02;;;15.40;;
44842;SDS011;31884;52.538;13.820;2024-03-07T10:19:45;22.88;;;13.57;;
44842;SDS011;31884;52.538;13.820;2024-03-07T10:22:13;24.85;;;14.35;;
44842;SDS011;31884;52.538;13.820;2024-03-07T10:24:39;33.25;;;16.92;;
44842;SDS011;31884;52.538;13.820;2024-03-07T10:27:05;22.05;;;13.35;;
44842;SDS011;31884;52.538;13.820;2024-03-07T10:29:31;28.48;;;16.42;;
44842;SDS011;31884;52.538;13.820;2024-03-07T10:31:56;21.77;;;14.15;;
44842;SDS011;31884;52.538;13.820;2024-03-07T10:34:23;25.95;;;14.25;;
44842;SDS011;31884;52.538;13.820;2024-03-07T10:36:48;27.85;;;15.48;;
44842;SDS011;31884;52.538;13.820;2024-03-07T10:39:14;26.75;;;14.90;;
44842;SDS011;31884;52.538;13.820;2024-03-07T10:41:46;24.17;;;14.48;;
44842;SDS011;31884;52.538;13.820;2024-03-07T10:44:16;27.48;;;15.95;;
44842;SDS011;31884;52.538;13.820;2024-03-07T10:46:44;26.25;;;15.40;;
44842;SDS011;31884;52.538;13.820;2024-03-07T10:49:17;30.13;;;15.75;;
44842;SDS011;31884;52.538;13.820;2024-03-07T10:51:49;26.10;;;15.45;;
44842;SDS011;31884;52.538;13.820;2024-03-07T10:54:39;25.77;;;15.32;;
44842;SDS011;31884;52.538;13.820;2024-03-07T10:59:53;31.52;;;14.57;;
44842;SDS011;31884;52.538;13.820;2024-03-07T11:04:52;24.48;;;15.13;;
44842;SDS011;31884;52.538;13.820;2024-03-07T11:07:22;26.42;;;13.70;;
44842;SDS011;31884;52.538;13.820;2024-03-07T11:09:51;28.38;;;15.80;;
44842;SDS011;31884;52.538;13.820;2024-03-07T11:12:23;28.35;;;16.13;;
44842;SDS011;31884;52.538;13.820;2024-03-07T11:17:20;27.23;;;15.65;;
44842;SDS011;31884;52.538;13.820;2024-03-07T11:19:47;32.53;;;15.25;;
44842;SDS011;31884;52.538;13.820;2024-03-07T11:22:29;30.05;;;16.77;;
44842;SDS011;31884;52.538;13.820;2024-03-07T11:25:01;28.75;;;15.65;;
44842;SDS011;31884;52.538;13.820;2024-03-07T11:27:36;25.75;;;14.98;;
44842;SDS011;31884;52.538;13.820;2024-03-07T11:30:04;27.52;;;15.73;;
44842;SDS011;31884;52.538;13.820;2024-03-07T11:32:34;27.80;;;15.75;;
44842;SDS011;31884;52.538;13.820;2024-03-07T11:35:03;30.08;;;16.73;;
44842;SDS011;31884;52.538;13.820;2024-03-07T11:37:44;28.98;;;15.73;;
44842;SDS011;31884;52.538;13.820;2024-03-07T11:40:12;29.15;;;16.70;;
44842;SDS011;31884;52.538;13.820;2024-03-07T11:42:49;30.45;;;16.58;;
44842;SDS011;31884;52.538;13.820;2024-03-07T11:45:16;29.13;;;16.25;;
44842;SDS011;31884;52.538;13.820;2024-03-07T11:47:57;32.40;;;18.08;;
44842;SDS011;31884;52.538;13.820;2024-03-07T11:50:31;25.88;;;16.48;;
44842;SDS011;31884;52.538;13.820;2024-03-07T11:53:04;32.60;;;16.75;;
44842;SDS011;31884;52.538;13.820;2024-03-07T11:55:32;26.67;;;16.45;;
44842;SDS011;31884;52.538;13.820;2024-03-07T11:58:13;33.58;;;17.58;;
44842;SDS011;31884;52.538;13.820;2024-03-07T12:00:43;26.98;;;16.75;;
44842;SDS011;31884;52.538;13.820;2024-03-07T12:03:10;28.98;;;16.73;;
44842;SDS011;31884;52.538;13.820;2024-03-07T12:05:42;26.35;;;15.50;;
44842;SDS011;31884;52.538;13.820;2024-03-07T12:08:11;30.23;;;16.20;;
44842;SDS011;31884;52.538;13.820;2024-03-07T12:10:37;28.20;;;15.75;;
44842;SDS011;31884;52.538;13.820;2024-03-07T12:13:04;28.63;;;15.88;;
44842;SDS011;31884;52.538;13.820;2024-03-07T12:15:31;26.83;;;14.27;;
44842;SDS011;31884;52.538;13.820;2024-03-07T12:17:58;28.15;;;16.55;;
44842;SDS011;31884;52.538;13.820;2024-03-07T12:20:26;25.90;;;14.43;;
44842;SDS011;31884;52.538;13.820;2024-03-07T12:22:59;30.73;;;16.05;;
44842;SDS011;31884;52.538;13.820;2024-03-07T12:25:31;31.63;;;16.42;;
44842;SDS011;31884;52.538;13.820;2024-03-07T12:28:01;26.50;;;15.20;;
44842;SDS011;31884;52.538;13.820;2024-03-07T12:30:34;29.70;;;15.02;;
44842;SDS011;31884;52.538;13.820;2024-03-07T12:33:01;25.63;;;14.63;;
44842;SDS011;31884;52.538;13.820;2024-03-07T12:35:32;26.65;;;15.70;;
44842;SDS011;31884;52.538;13.820;2024-03-07T12:37:58;27.98;;;15.13;;
44842;SDS011;31884;52.538;13.820;2024-03-07T12:40:24;28.77;;;15.50;;
44842;SDS011;31884;52.538;13.820;2024-03-07T12:42:54;30.08;;;16.88;;
44842;SDS011;31884;52.538;13.820;2024-03-07T12:45:19;25.77;;;14.68;;
44842;SDS011;31884;52.538;13.820;2024-03-07T12:47:48;23.85;;;13.93;;
44842;SDS011;31884;52.538;13.820;2024-03-07T12:50:19;28.02;;;15.93;;
44842;SDS011;31884;52.538;13.820;2024-03-07T12:52:46;25.38;;;14.90;;
44842;SDS011;31884;52.538;13.820;2024-03-07T12:55:15;28.17;;;15.73;;
44842;SDS011;31884;52.538;13.820;2024-03-07T12:57:46;24.98;;;15.32;;
44842;SDS011;31884;52.538;13.820;2024-03-07T13:00:15;27.67;;;14.55;;
44842;SDS011;31884;52.538;13.820;2024-03-07T13:02:45;28.13;;;14.57;;
44842;SDS011;31884;52.538;13.820;2024-03-07T13:05:11;27.48;;;14.48;;
44842;SDS011;31884;52.538;13.820;2024-03-07T13:07:44;21.75;;;13.15;;
44842;SDS011;31884;52.538;13.820;2024-03-07T13:10:11;26.33;;;13.20;;
44842;SDS011;31884;52.538;13.820;2024-03-07T13:12:39;24.05;;;14.10;;
44842;SDS011;31884;52.538;13.820;2024-03-07T13:15:10;25.63;;;15.02;;
44842;SDS011;31884;52.538;13.820;2024-03-07T13:17:39;28.83;;;16.30;;
44842;SDS011;31884;52.538;13.820;2024-03-07T13:20:05;23.88;;;14.73;;
44842;SDS011;31884;52.538;13.820;2024-03-07T13:22:40;27.85;;;14.65;;
44842;SDS011;31884;52.538;13.820;2024-03-07T13:25:19;27.95;;;14.35;;
44842;SDS011;31884;52.538;13.820;2024-03-07T13:27:56;25.77;;;13.88;;
44842;SDS011;31884;52.538;13.820;2024-03-07T13:30:22;28.63;;;16.00;;
44842;SDS011;31884;52.538;13.820;2024-03-07T13:32:52;30.50;;;14.95;;
44842;SDS011;31884;52.538;13.820;2024-03-07T13:35:21;28.02;;;14.75;;
44842;SDS011;31884;52.538;13.820;2024-03-07T13:37:48;22.27;;;14.00;;
44842;SDS011;31884;52.538;13.820;2024-03-07T13:40:15;22.50;;;12.85;;
44842;SDS011;31884;52.538;13.820;2024-03-07T13:42:57;27.23;;;15.38;;
44842;SDS011;31884;52.538;13.820;2024-03-07T13:47:59;25.88;;;14.65;;
44842;SDS011;31884;52.538;13.820;2024-03-07T13:50:25;25.83;;;15.02;;
44842;SDS011;31884;52.538;13.820;2024-03-07T13:52:55;25.98;;;14.13;;
44842;SDS011;31884;52.538;13.820;2024-03-07T14:04:32;29.70;;;15.27;;
44842;SDS011;31884;52.538;13.820;2024-03-07T14:07:35;26.60;;;14.55;;
44842;SDS011;31884;52.538;13.820;2024-03-07T14:22:39;26.45;;;15.60;;
44842;SDS011;31884;52.538;13.820;2024-03-07T14:31:04;27.92;;;15.52;;
44842;SDS011;31884;52.538;13.820;2024-03-07T14:33:47;26.38;;;15.75;;
44842;SDS011;31884;52.538;13.820;2024-03-07T14:36:37;25.27;;;14.73;;
44842;SDS011;31884;52.538;13.820;2024-03-07T14:39:06;24.25;;;13.65;;
44842;SDS011;31884;52.538;13.820;2024-03-07T14:44:15;24.35;;;14.45;;
44842;SDS011;31884;52.538;13.820;2024-03-07T14:46:42;25.30;;;14.45;;
44842;SDS011;31884;52.538;13.820;2024-03-07T14:49:09;30.75;;;15.40;;